Time;durP1;ratioP1;P1;durP2;ratioP2;P2;SDS_P1;SDS_P2;PMS_P1;PMS_P2;Temp;Humidity;BMP_temperature;BMP_pressure;BME280_temperature;BME280_humidity;BME280_pressure;Samples;Min_cycle;Max_cycle;Signal;HPM_P1;HPM_P2
2023/05/24 00:01:06;;;;;;;5.27;3.20;;;;;;;13.29;84.92;98439.41;5090976;28;20209;-82
2023/05/24 00:03:33;;;;;;;4.70;3.10;;;;;;;13.25;85.01;98445.91;5091312;28;20263;-80
2023/05/24 00:06:00;;;;;;;5.07;3.17;;;;;;;13.28;84.83;98435.06;5091384;28;20213;-81
2023/05/24 00:08:27;;;;;;;4.47;3.50;;;;;;;13.17;85.15;98439.47;5091338;28;20676;-82
2023/05/24 00:10:54;;;;;;;5.63;3.53;;;;;;;13.15;85.83;98446.72;5090547;28;20214;-82
2023/05/24 00:13:21;;;;;;;5.13;3.70;;;;;;;13.21;85.45;98441.78;5091191;28;20210;-82
2023/05/24 00:15:47;;;;;;;4.20;3.20;;;;;;;13.23;85.39;98444.31;5091360;28;20233;-81
2023/05/24 00:18:16;;;;;;;4.73;3.60;;;;;;;13.26;84.88;98428.19;5091417;28;20207;-82
2023/05/24 00:20:43;;;;;;;4.10;3.47;;;;;;;13.25;85.34;98426.47;5090567;28;20240;-82
2023/05/24 00:23:09;;;;;;;4.50;3.50;;;;;;;13.30;85.19;98434.94;5091144;28;20226;-82
2023/05/24 00:25:36;;;;;;;5.47;3.47;;;;;;;13.33;84.85;98429.41;5091094;28;20240;-81
2023/05/24 00:28:04;;;;;;;3.93;3.33;;;;;;;13.35;84.18;98422.16;5091451;28;20220;-82
2023/05/24 00:30:30;;;;;;;5.93;3.73;;;;;;;13.25;84.17;98422.00;5105431;28;20206;-79
2023/05/24 00:32:57;;;;;;;4.80;3.67;;;;;;;13.22;85.04;98432.00;5107692;28;20217;-79
2023/05/24 00:35:23;;;;;;;4.70;3.50;;;;;;;13.28;84.54;98420.94;5105706;28;20226;-80
2023/05/24 00:37:50;;;;;;;4.77;3.40;;;;;;;13.20;84.95;98418.84;5091404;28;20208;-80
2023/05/24 00:40:16;;;;;;;4.57;3.47;;;;;;;13.18;84.39;98414.63;5090630;28;20235;-81
2023/05/24 00:42:43;;;;;;;4.50;3.37;;;;;;;13.11;84.17;98414.25;5090827;28;20225;-77
2023/05/24 00:45:12;;;;;;;5.00;3.30;;;;;;;13.10;83.95;98411.69;5090925;28;20250;-82
2023/05/24 00:47:38;;;;;;;4.10;3.27;;;;;;;13.07;84.32;98417.25;5090989;28;20221;-82
2023/05/24 00:50:08;;;;;;;5.10;3.27;;;;;;;13.07;82.49;98409.28;5090182;28;20209;-81
2023/05/24 00:52:35;;;;;;;4.30;3.23;;;;;;;13.07;80.45;98394.19;5090786;28;20294;-81
2023/05/24 00:55:03;;;;;;;7.33;3.80;;;;;;;13.07;78.21;98388.06;5090894;28;20785;-81
2023/05/24 00:57:30;;;;;;;6.20;3.17;;;;;;;13.04;77.51;98390.94;5090721;28;20203;-81
2023/05/24 00:59:56;;;;;;;5.80;3.20;;;;;;;12.92;78.78;98378.53;5089572;28;20213;-81
2023/05/24 01:02:25;;;;;;;7.20;3.43;;;;;;;12.76;79.67;98388.59;5092190;28;20239;-80
2023/05/24 01:04:52;;;;;;;6.83;3.40;;;;;;;12.75;79.45;98394.88;5094628;28;20336;-81
2023/05/24 01:07:26;;;;;;;7.87;3.50;;;;;;;12.72;78.94;98397.75;5094600;28;20276;-82
2023/05/24 01:10:04;;;;;;;10.20;3.67;;;;;;;12.70;78.85;98394.34;5093765;28;20207;-82
2023/05/24 01:12:53;;;;;;;5.83;3.13;;;;;;;12.64;79.37;98389.50;5094260;28;20704;-82
2023/05/24 01:15:24;;;;;;;4.20;3.30;;;;;;;12.67;80.07;98407.84;5094500;28;20238;-81
2023/05/24 01:18:01;;;;;;;4.20;3.37;;;;;;;12.75;78.21;98392.22;5094444;28;20212;-82
2023/05/24 01:20:30;;;;;;;6.73;3.40;;;;;;;12.78;78.35;98394.66;5093591;28;20228;-82
2023/05/24 01:23:33;;;;;;;7.13;3.50;;;;;;;12.72;79.22;98401.22;5094069;28;20240;-82
2023/05/24 01:26:19;;;;;;;6.27;3.40;;;;;;;12.75;80.12;98405.47;5090167;28;20299;-80
2023/05/24 01:28:48;;;;;;;4.93;3.47;;;;;;;12.68;79.26;98405.09;5094245;28;20208;-81
2023/05/24 01:31:16;;;;;;;9.20;3.57;;;;;;;12.76;78.66;98401.84;5093383;28;20244;-82
2023/05/24 01:33:43;;;;;;;7.33;3.70;;;;;;;12.68;78.74;98393.63;5093850;28;20584;-80
2023/05/24 01:36:10;;;;;;;7.07;3.93;;;;;;;12.59;79.60;98396.97;5094230;28;20211;-81
2023/05/24 01:38:37;;;;;;;7.20;3.57;;;;;;;12.53;79.60;98395.59;5094105;28;20210;-80
2023/05/24 01:41:12;;;;;;;4.80;3.10;;;;;;;12.52;79.56;98393.91;5093306;28;20202;-81
2023/05/24 01:43:43;;;;;;;9.70;3.57;;;;;;;12.40;80.00;98404.56;5093800;28;20231;-81
2023/05/24 01:46:18;;;;;;;6.03;3.43;;;;;;;12.30;80.87;98411.47;5093795;28;20210;-81
2023/05/24 01:48:59;;;;;;;6.67;3.50;;;;;;;12.33;79.63;98408.59;5094110;28;20212;-81
2023/05/24 01:51:37;;;;;;;5.50;3.37;;;;;;;12.28;79.80;98405.44;5093334;28;20271;-81
2023/05/24 01:54:06;;;;;;;6.23;3.30;;;;;;;12.37;79.98;98412.72;5093543;28;20594;-81
2023/05/24 01:56:34;;;;;;;7.00;3.57;;;;;;;12.47;78.79;98417.25;5093520;28;20602;-80
2023/05/24 01:59:02;;;;;;;7.37;3.47;;;;;;;12.46;78.08;98410.25;5093691;28;20207;-81
2023/05/24 02:01:31;;;;;;;6.80;3.00;;;;;;;12.43;78.53;98404.31;5092894;28;20214;-81
2023/05/24 02:04:00;;;;;;;8.23;3.67;;;;;;;12.43;78.09;98405.19;5093280;28;20233;-81
2023/05/24 02:06:26;;;;;;;6.97;3.87;;;;;;;12.37;77.63;98410.06;5093392;28;20213;-81
2023/05/24 02:08:53;;;;;;;5.83;3.37;;;;;;;12.35;78.39;98412.81;5093677;28;20210;-81
2023/05/24 02:11:19;;;;;;;10.03;3.70;;;;;;;12.29;78.68;98418.56;5092425;28;20209;-80
2023/05/24 02:13:46;;;;;;;7.70;3.60;;;;;;;12.38;78.08;98409.97;5093126;28;20293;-75
2023/05/24 02:16:12;;;;;;;7.07;3.50;;;;;;;12.26;78.55;98418.78;5093176;28;20698;-83
2023/05/24 02:18:43;;;;;;;5.97;3.40;;;;;;;12.25;79.16;98418.91;5093170;28;20243;-81
2023/05/24 02:21:10;;;;;;;8.83;3.73;;;;;;;12.19;79.27;98416.69;5092338;28;20216;-81
2023/05/24 02:23:37;;;;;;;7.57;3.80;;;;;;;12.07;79.63;98423.72;5092710;28;20275;-83
2023/05/24 02:26:03;;;;;;;9.07;4.10;;;;;;;12.09;79.39;98427.09;5092658;28;20233;-81
2023/05/24 02:28:31;;;;;;;7.10;3.53;;;;;;;12.12;79.98;98426.03;5093024;28;20209;-81
2023/05/24 02:30:57;;;;;;;8.43;3.63;;;;;;;12.09;79.69;98427.09;5092297;28;20301;-82
2023/05/24 02:33:25;;;;;;;8.80;3.67;;;;;;;12.03;80.26;98427.53;5092916;28;20203;-81
2023/05/24 02:35:52;;;;;;;7.70;4.40;;;;;;;12.06;79.43;98416.72;5092890;28;20713;-81
2023/05/24 02:38:19;;;;;;;6.33;3.57;;;;;;;12.17;79.50;98423.91;5092640;28;20207;-81
2023/05/24 02:40:45;;;;;;;7.70;3.70;;;;;;;12.08;79.92;98429.84;5092024;28;20209;-82
2023/05/24 02:43:12;;;;;;;6.57;4.03;;;;;;;12.12;79.42;98423.38;5092519;28;20229;-82
2023/05/24 02:45:39;;;;;;;6.13;3.53;;;;;;;12.22;79.15;98427.09;5092677;28;20267;-82
2023/05/24 02:48:05;;;;;;;8.87;4.00;;;;;;;12.14;79.10;98424.09;5092636;28;20641;-84
2023/05/24 02:50:32;;;;;;;6.20;3.37;;;;;;;12.20;78.59;98434.28;5092029;28;20691;-82
2023/05/24 02:53:00;;;;;;;5.60;3.37;;;;;;;12.24;78.46;98425.16;5092464;28;20206;-82
2023/05/24 02:55:27;;;;;;;10.67;3.77;;;;;;;12.21;78.72;98420.91;5092411;28;20231;-82
2023/05/24 02:57:54;;;;;;;9.67;4.73;;;;;;;12.13;78.85;98417.13;5092513;28;20210;-81
2023/05/24 03:00:21;;;;;;;9.50;4.40;;;;;;;12.14;78.74;98418.81;5091709;28;20210;-81
2023/05/24 03:02:49;;;;;;;7.93;3.80;;;;;;;12.20;78.32;98424.53;5092198;28;20321;-81
2023/05/24 03:05:16;;;;;;;10.17;4.23;;;;;;;12.10;79.33;98433.25;5092058;28;20237;-81
2023/05/24 03:07:42;;;;;;;8.90;3.73;;;;;;;12.11;79.39;98429.63;5092179;28;20688;-81
2023/05/24 03:10:11;;;;;;;7.23;3.47;;;;;;;12.09;79.52;98428.88;5091593;28;20207;-81
2023/05/24 03:12:37;;;;;;;6.10;3.60;;;;;;;12.10;79.40;98431.44;5092141;28;20570;-83
2023/05/24 03:15:04;;;;;;;7.23;3.93;;;;;;;12.04;79.81;98438.97;5092123;28;20226;-79
2023/05/24 03:17:31;;;;;;;6.53;3.70;;;;;;;12.03;79.56;98431.97;5092193;28;20221;-82
2023/05/24 03:19:57;;;;;;;7.20;3.83;;;;;;;11.97;79.46;98432.38;5091384;28;20212;-82
2023/05/24 03:22:24;;;;;;;7.83;4.30;;;;;;;11.95;79.96;98434.31;5092026;28;20203;-82
2023/05/24 03:24:50;;;;;;;8.70;4.53;;;;;;;11.90;80.71;98429.34;5100026;22;20608;-79
2023/05/24 03:27:18;;;;;;;11.07;3.97;;;;;;;11.83;80.52;98430.72;5071693;28;20211;-78
2023/05/24 03:29:45;;;;;;;7.00;4.27;;;;;;;11.72;80.99;98425.31;5070882;28;20211;-79
2023/05/24 03:32:11;;;;;;;6.67;4.03;;;;;;;11.59;81.93;98436.84;5071367;28;20299;-78
2023/05/24 03:34:37;;;;;;;9.00;4.10;;;;;;;11.52;82.17;98439.03;5071139;28;20224;-78
2023/05/24 03:37:05;;;;;;;7.00;4.10;;;;;;;11.50;83.02;98437.44;5071458;28;20207;-78
2023/05/24 03:39:31;;;;;;;7.17;4.20;;;;;;;11.44;83.70;98433.41;5070718;28;20300;-78
2023/05/24 03:41:58;;;;;;;8.70;4.07;;;;;;;11.31;83.79;98427.25;5071709;28;20208;-78
2023/05/24 03:44:25;;;;;;;11.90;4.57;;;;;;;11.36;83.66;98434.88;5071227;28;20238;-79
2023/05/24 03:46:52;;;;;;;6.60;3.83;;;;;;;11.42;83.60;98439.75;5071211;28;20219;-78
2023/05/24 03:49:18;;;;;;;9.90;3.87;;;;;;;11.37;83.58;98431.31;5070470;28;20203;-78
2023/05/24 03:51:45;;;;;;;8.53;4.20;;;;;;;11.35;83.85;98435.81;5071670;28;20810;-78
2023/05/24 03:54:11;;;;;;;8.10;4.17;;;;;;;11.30;84.63;98430.00;5071151;28;20200;-78
2023/05/24 03:56:38;;;;;;;5.37;3.60;;;;;;;11.29;84.86;98433.59;5071328;28;20208;-78
2023/05/24 03:59:04;;;;;;;8.70;3.97;;;;;;;11.35;84.56;98438.47;5070794;28;20206;-78
2023/05/24 04:01:32;;;;;;;9.13;3.87;;;;;;;11.35;83.80;98426.09;5070578;28;20288;-78
2023/05/24 04:04:00;;;;;;;7.27;3.90;;;;;;;11.33;84.66;98432.44;5071258;28;20579;-79
2023/05/24 04:06:28;;;;;;;6.33;3.90;;;;;;;11.36;84.17;98426.94;5071186;28;20250;-78
2023/05/24 04:08:54;;;;;;;10.90;4.53;;;;;;;11.32;84.53;98428.94;5070996;28;20209;-78
2023/05/24 04:11:22;;;;;;;7.73;4.00;;;;;;;11.39;85.01;98432.03;5070431;28;20203;-78
2023/05/24 04:13:48;;;;;;;10.70;4.40;;;;;;;11.30;85.79;98432.63;5070928;28;20634;-78
2023/05/24 04:16:15;;;;;;;9.13;4.20;;;;;;;11.26;85.99;98429.34;5070753;28;20240;-78
2023/05/24 04:18:44;;;;;;;9.30;4.10;;;;;;;11.26;86.66;98439.09;5071106;28;20219;-78
2023/05/24 04:21:10;;;;;;;6.73;3.93;;;;;;;11.27;86.24;98435.50;5070299;28;20212;-78
2023/05/24 04:23:37;;;;;;;6.27;3.83;;;;;;;11.31;86.45;98437.84;5070730;28;20718;-78
2023/05/24 04:26:03;;;;;;;8.53;4.70;;;;;;;11.46;85.59;98435.97;5070697;28;20231;-78
2023/05/24 04:28:30;;;;;;;6.63;4.10;;;;;;;11.40;85.84;98426.66;5070955;28;20221;-78
2023/05/24 04:30:57;;;;;;;9.47;4.00;;;;;;;11.38;85.84;98428.53;5070102;28;20217;-78
2023/05/24 04:33:24;;;;;;;6.03;3.90;;;;;;;11.39;85.69;98434.69;5070793;28;20204;-79
2023/05/24 04:35:54;;;;;;;12.23;4.60;;;;;;;11.40;85.17;98434.59;5070724;28;20234;-79
2023/05/24 04:38:22;;;;;;;8.17;4.43;;;;;;;11.45;85.40;98440.41;5073966;28;20211;-79
2023/05/24 04:40:48;;;;;;;6.43;4.27;;;;;;;11.46;85.56;98435.97;5073809;28;20211;-78
2023/05/24 04:43:14;;;;;;;7.20;4.27;;;;;;;11.44;86.21;98438.69;5074377;28;20231;-78
2023/05/24 04:45:41;;;;;;;9.87;4.20;;;;;;;11.44;85.53;98444.00;5074597;28;20231;-78
2023/05/24 04:48:08;;;;;;;7.10;4.20;;;;;;;11.44;85.34;98443.16;5074591;28;20239;-78
2023/05/24 04:50:36;;;;;;;10.87;4.30;;;;;;;11.48;85.44;98444.63;5073790;28;20674;-79
2023/05/24 04:53:04;;;;;;;6.53;4.03;;;;;;;11.46;85.48;98451.84;5074465;28;20199;-78
2023/05/24 04:55:31;;;;;;;7.20;4.27;;;;;;;11.55;85.10;98451.22;5074219;28;20227;-78
2023/05/24 04:57:57;;;;;;;12.70;4.10;;;;;;;11.55;84.71;98451.22;5074529;28;20265;-78
2023/05/24 05:00:24;;;;;;;9.90;4.47;;;;;;;11.64;84.83;98456.78;5073615;28;20214;-78
2023/05/24 05:02:50;;;;;;;8.37;4.00;;;;;;;11.54;85.19;98454.81;5073924;28;20216;-78
2023/05/24 05:05:17;;;;;;;8.13;3.80;;;;;;;11.56;85.58;98453.75;5073930;28;20249;-78
2023/05/24 05:07:44;;;;;;;5.87;3.67;;;;;;;11.53;85.16;98455.75;5073829;28;20213;-79
2023/05/24 05:10:12;;;;;;;9.80;4.13;;;;;;;11.61;84.72;98461.44;5073174;28;20212;-79
2023/05/24 05:12:38;;;;;;;7.43;4.20;;;;;;;11.65;84.29;98457.59;5073735;28;20213;-79
2023/05/24 05:15:06;;;;;;;8.57;4.17;;;;;;;11.65;84.47;98457.59;5074108;28;20223;-78
2023/05/24 05:17:32;;;;;;;7.93;4.43;;;;;;;11.67;84.77;98461.84;5073834;28;20297;-78
2023/05/24 05:19:59;;;;;;;6.43;4.33;;;;;;;11.66;85.09;98461.94;5072884;28;20705;-78
2023/05/24 05:22:25;;;;;;;11.40;4.43;;;;;;;11.68;84.86;98468.00;5073956;28;20215;-78
2023/05/24 05:24:52;;;;;;;7.47;4.10;;;;;;;11.81;84.26;98458.25;5073422;28;20231;-78
2023/05/24 05:27:20;;;;;;;7.47;4.27;;;;;;;11.74;84.17;98462.28;5073820;28;20212;-79
2023/05/24 05:29:46;;;;;;;9.60;4.50;;;;;;;11.76;83.41;98450.66;5072762;28;20203;-79
2023/05/24 05:32:13;;;;;;;8.70;4.37;;;;;;;11.89;82.58;98447.97;5073977;28;20207;-79
2023/05/24 05:34:39;;;;;;;8.80;4.70;;;;;;;11.91;81.69;98444.28;5073642;28;20227;-79
2023/05/24 05:37:06;;;;;;;8.60;4.60;;;;;;;11.90;81.62;98452.31;5073621;28;20546;-78
2023/05/24 05:39:32;;;;;;;6.63;4.30;;;;;;;11.96;81.18;98444.81;5072565;28;20216;-78
2023/05/24 05:41:59;;;;;;;8.60;4.60;;;;;;;11.92;81.08;98445.97;5073312;28;20214;-78
2023/05/24 05:44:27;;;;;;;9.47;4.20;;;;;;;11.91;81.40;98440.75;5073228;28;20239;-79
2023/05/24 05:46:54;;;;;;;7.37;3.83;;;;;;;11.86;81.71;98445.56;5073176;28;20203;-78
2023/05/24 05:49:20;;;;;;;7.70;4.20;;;;;;;11.87;83.21;98455.19;5072209;28;20207;-79
2023/05/24 05:51:47;;;;;;;7.83;4.00;;;;;;;11.89;82.82;98453.28;5073372;28;20549;-78
2023/05/24 05:54:17;;;;;;;6.83;3.90;;;;;;;11.94;82.92;98443.22;5073071;28;20208;-79
2023/05/24 05:56:46;;;;;;;11.70;3.93;;;;;;;11.92;82.83;98442.47;5073306;28;20308;-79
2023/05/24 05:59:14;;;;;;;7.90;3.80;;;;;;;12.04;80.54;98438.97;5072649;28;20230;-79
2023/05/24 06:01:42;;;;;;;10.27;4.13;;;;;;;12.05;79.29;98436.19;5073050;28;20201;-79
2023/05/24 06:04:09;;;;;;;8.33;4.23;;;;;;;12.08;80.65;98443.09;5072973;28;20234;-79
2023/05/24 06:06:36;;;;;;;6.23;3.63;;;;;;;12.15;79.09;98431.09;5073220;28;20232;-79
2023/05/24 06:09:02;;;;;;;7.93;3.70;;;;;;;12.11;79.21;98440.22;5072935;28;20227;-79
2023/05/24 06:11:29;;;;;;;9.93;4.57;;;;;;;12.08;80.16;98440.44;5072642;28;20203;-79
2023/05/24 06:13:55;;;;;;;7.17;4.10;;;;;;;12.03;80.01;98443.41;5072845;28;20202;-78
2023/05/24 06:16:22;;;;;;;7.60;4.03;;;;;;;12.09;79.44;98442.97;5072952;28;20203;-79
2023/05/24 06:18:50;;;;;;;8.67;4.07;;;;;;;12.11;79.38;98437.59;5072687;28;20590;-79
2023/05/24 06:21:17;;;;;;;8.50;4.20;;;;;;;12.07;79.03;98426.34;5071796;28;20258;-79
2023/05/24 06:23:43;;;;;;;10.13;4.70;;;;;;;12.10;80.76;98444.66;5072675;28;20235;-79
2023/05/24 06:26:10;;;;;;;11.33;4.43;;;;;;;12.16;79.56;98444.25;5072288;28;20320;-79
2023/05/24 06:28:37;;;;;;;7.73;3.90;;;;;;;12.17;78.94;98439.81;5072597;28;20214;-81
2023/05/24 06:31:03;;;;;;;9.53;3.87;;;;;;;12.20;79.41;98445.72;5071604;28;20207;-83
2023/05/24 06:33:31;;;;;;;7.27;4.03;;;;;;;12.19;78.60;98437.88;5072623;28;20328;-86
2023/05/24 06:35:58;;;;;;;9.53;4.07;;;;;;;12.26;78.82;98447.94;5072135;28;20713;-81
2023/05/24 06:38:26;;;;;;;9.87;4.47;;;;;;;12.19;77.90;98443.19;5072424;28;20214;-80
2023/05/24 06:40:53;;;;;;;7.30;3.70;;;;;;;12.17;79.74;98450.41;5070795;28;20302;-79
2023/05/24 06:43:19;;;;;;;9.27;4.03;;;;;;;12.23;79.96;98455.28;5069767;28;20203;-79
2023/05/24 06:45:46;;;;;;;9.67;4.20;;;;;;;12.29;80.92;98470.75;5069122;28;20288;-79
2023/05/24 06:48:12;;;;;;;7.70;3.93;;;;;;;12.19;79.68;98459.94;5068714;28;20265;-79
2023/05/24 06:50:40;;;;;;;10.30;3.80;;;;;;;12.24;80.24;98467.56;5069295;28;20590;-79
2023/05/24 06:53:08;;;;;;;9.90;3.70;;;;;;;12.17;80.85;98471.59;5072315;28;20215;-80
2023/05/24 06:55:34;;;;;;;8.40;4.00;;;;;;;12.28;79.54;98469.06;5072068;28;20231;-79
2023/05/24 06:58:01;;;;;;;9.70;4.40;;;;;;;12.25;79.23;98474.56;5071112;28;20215;-78
2023/05/24 07:00:27;;;;;;;10.77;4.03;;;;;;;12.31;78.58;98479.41;5069916;28;20233;-79
2023/05/24 07:02:54;;;;;;;7.97;4.23;;;;;;;12.31;80.48;98485.59;5069437;28;20223;-79
2023/05/24 07:05:21;;;;;;;12.80;4.37;;;;;;;12.34;79.75;98489.81;5069237;28;20231;-80
2023/05/24 07:07:47;;;;;;;9.23;4.47;;;;;;;12.34;79.46;98484.53;5069092;28;20218;-80
2023/05/24 07:10:15;;;;;;;13.00;4.80;;;;;;;12.46;79.84;98494.25;5069830;28;20207;-79
2023/05/24 07:12:41;;;;;;;9.00;4.60;;;;;;;12.45;78.05;98487.22;5071906;28;20235;-78
2023/05/24 07:15:09;;;;;;;9.60;4.10;;;;;;;12.41;79.02;98496.38;5069248;28;20231;-79
2023/05/24 07:17:35;;;;;;;8.17;4.40;;;;;;;12.45;78.39;98492.53;5068184;28;20244;-79
2023/05/24 07:20:05;;;;;;;10.80;3.90;;;;;;;12.43;77.29;98494.47;5068413;28;20210;-79
2023/05/24 07:22:32;;;;;;;7.73;4.00;;;;;;;12.49;76.26;98483.41;5070016;28;20284;-80
2023/05/24 07:25:03;;;;;;;8.30;3.97;;;;;;;12.53;75.99;98495.50;5071387;28;20242;-79
2023/05/24 07:27:31;;;;;;;7.73;4.00;;;;;;;12.56;76.34;98489.97;5070696;28;20230;-82
2023/05/24 07:29:57;;;;;;;8.90;3.70;;;;;;;12.64;75.46;98482.31;5068060;28;20687;-79
2023/05/24 07:32:24;;;;;;;6.33;3.93;;;;;;;12.71;75.64;98494.19;5069029;28;20219;-80
2023/05/24 07:34:53;;;;;;;8.43;3.83;;;;;;;12.92;74.80;98490.84;5068975;28;20224;-80
2023/05/24 07:37:22;;;;;;;11.10;4.50;;;;;;;12.94;73.86;98494.22;5070924;28;20264;-80
2023/05/24 07:39:49;;;;;;;6.43;3.97;;;;;;;12.95;74.01;98495.06;5070504;28;20234;-79
2023/05/24 07:42:16;;;;;;;11.00;4.03;;;;;;;12.94;75.18;98506.63;5069338;28;20211;-80
2023/05/24 07:44:43;;;;;;;9.47;4.10;;;;;;;12.84;75.45;98503.78;5068351;28;20592;-79
2023/05/24 07:47:10;;;;;;;9.03;4.13;;;;;;;12.76;75.55;98507.94;5068373;28;20219;-80
2023/05/24 07:49:37;;;;;;;12.77;4.07;;;;;;;12.78;75.70;98503.41;5068955;28;20229;-80
2023/05/24 07:52:04;;;;;;;6.97;3.90;;;;;;;12.82;76.26;98512.81;5071123;28;20212;-80
2023/05/24 07:54:31;;;;;;;10.40;3.77;;;;;;;12.93;75.75;98510.22;5069740;28;20215;-79
2023/05/24 07:56:58;;;;;;;7.70;3.73;;;;;;;12.85;74.11;98496.69;5068334;28;20215;-80
2023/05/24 07:59:25;;;;;;;8.75;5.05;;;;;;;12.90;73.47;98499.84;5065542;28;20438;-77
2023/05/24 08:01:52;;;;;;;9.43;4.73;;;;;;;12.82;73.09;98497.75;5066064;28;20208;-77
2023/05/24 08:04:19;;;;;;;8.60;4.17;;;;;;;12.72;73.56;98506.50;5070141;28;20229;-77
2023/05/24 08:06:46;;;;;;;14.47;4.10;;;;;;;12.75;74.33;98515.06;5070580;28;20207;-76
2023/05/24 08:09:12;;;;;;;7.90;3.70;;;;;;;12.84;74.35;98516.22;5068591;28;20235;-76
2023/05/24 08:11:40;;;;;;;10.47;3.90;;;;;;;12.80;74.55;98512.09;5072573;28;20249;-76
2023/05/24 08:14:10;;;;;;;11.93;4.63;;;;;;;12.90;74.67;98510.47;5074468;28;20214;-77
2023/05/24 08:16:37;;;;;;;8.53;4.23;;;;;;;12.98;73.80;98513.44;5073069;28;20238;-76
2023/05/24 08:19:05;;;;;;;7.43;3.83;;;;;;;13.09;73.49;98519.66;5073912;28;20216;-76
2023/05/24 08:21:32;;;;;;;8.63;4.00;;;;;;;13.10;73.62;98517.84;5073549;28;20213;-76
2023/05/24 08:23:59;;;;;;;9.20;4.27;;;;;;;13.03;73.28;98521.91;5072702;28;20634;-76
2023/05/24 08:26:26;;;;;;;8.47;3.50;;;;;;;12.95;74.36;98521.59;5074010;28;20249;-76
2023/05/24 08:28:53;;;;;;;12.53;4.70;;;;;;;12.87;75.39;98527.47;5073820;28;20207;-76
2023/05/24 08:31:20;;;;;;;10.17;4.03;;;;;;;12.90;74.92;98523.75;5072028;28;20247;-76
2023/05/24 08:33:49;;;;;;;8.63;4.77;;;;;;;12.93;75.11;98532.31;5073675;28;20222;-76
2023/05/24 08:36:17;;;;;;;10.43;4.50;;;;;;;13.04;74.13;98526.25;5073405;28;20227;-76
2023/05/24 08:38:43;;;;;;;9.40;4.43;;;;;;;13.03;73.86;98521.91;5072683;28;20208;-77
2023/05/24 08:41:11;;;;;;;10.77;4.73;;;;;;;13.20;75.59;98540.13;5072347;28;20228;-77
2023/05/24 08:43:38;;;;;;;12.73;4.00;;;;;;;13.26;71.25;98508.66;5073661;28;20217;-76
2023/05/24 08:46:06;;;;;;;9.07;4.27;;;;;;;13.46;72.18;98525.75;5072787;28;20235;-76
2023/05/24 08:48:37;;;;;;;9.10;3.80;;;;;;;13.57;71.53;98523.97;5060817;28;20227;-76
2023/05/24 08:51:04;;;;;;;8.53;4.00;;;;;;;13.47;70.65;98514.16;5052455;28;20654;-76
2023/05/24 08:53:36;;;;;;;10.13;4.77;;;;;;;13.63;70.23;98514.72;5070550;28;20212;-77
2023/05/24 08:56:03;;;;;;;13.53;4.60;;;;;;;13.59;70.03;98516.78;5071443;28;20597;-77
2023/05/24 08:58:30;;;;;;;12.30;4.83;;;;;;;13.67;69.97;98524.13;5072102;28;20219;-76
2023/05/24 09:00:58;;;;;;;10.05;4.50;;;;;;;13.70;69.54;98514.13;5069434;28;20788;-76
2023/05/24 09:03:25;;;;;;;7.30;4.70;;;;;;;13.59;69.68;98515.91;5069919;28;20610;-76
2023/05/24 09:05:52;;;;;;;10.57;4.50;;;;;;;13.61;69.99;98524.59;5070984;28;20252;-76
2023/05/24 09:08:20;;;;;;;9.70;4.80;;;;;;;13.62;69.87;98521.00;5071671;28;20228;-76
2023/05/24 09:10:48;;;;;;;8.70;4.37;;;;;;;13.64;68.58;98503.13;5073140;28;20251;-76
2023/05/24 09:13:15;;;;;;;8.33;4.47;;;;;;;13.54;69.69;98510.94;5074069;28;20206;-76
2023/05/24 09:15:42;;;;;;;10.00;4.50;;;;;;;13.42;69.99;98513.66;5073640;28;20228;-76
2023/05/24 09:18:10;;;;;;;8.17;4.17;;;;;;;13.35;70.60;98517.72;5073734;28;20204;-77
2023/05/24 09:20:36;;;;;;;7.97;4.33;;;;;;;13.35;72.05;98525.69;5072944;28;20218;-76
2023/05/24 09:23:06;;;;;;;9.83;5.27;;;;;;;13.38;73.58;98536.09;5073029;28;20213;-75
2023/05/24 09:25:32;;;;;;;10.07;5.50;;;;;;;13.40;71.36;98520.91;5087900;22;20232;-77
2023/05/24 09:28:06;;;;;;;8.43;4.17;;;;;;;13.36;70.83;98519.44;5074200;28;20236;-78
2023/05/24 09:30:32;;;;;;;9.30;4.83;;;;;;;13.41;71.09;98523.44;5073195;28;20210;-78
2023/05/24 09:33:00;;;;;;;12.37;5.03;;;;;;;13.39;71.29;98527.19;5070473;28;20203;-78
2023/05/24 09:35:28;;;;;;;11.60;4.70;;;;;;;13.20;71.04;98524.19;5072134;28;20246;-78
2023/05/24 09:37:56;;;;;;;14.10;4.70;;;;;;;13.29;71.68;98534.13;5070953;28;20290;-77
2023/05/24 09:40:23;;;;;;;14.33;5.40;;;;;;;13.30;72.38;98541.13;5070201;28;20898;-77
2023/05/24 09:43:04;;;;;;;10.47;4.53;;;;;;;13.26;73.13;98550.28;5071878;28;20209;-78
2023/05/24 09:45:31;;;;;;;9.20;4.47;;;;;;;13.19;72.81;98544.56;5073976;28;20243;-77
2023/05/24 09:47:58;;;;;;;10.17;4.57;;;;;;;13.02;71.29;98531.66;5072276;28;20271;-77
2023/05/24 09:50:26;;;;;;;13.10;5.27;;;;;;;13.14;71.77;98536.09;5070391;28;20220;-78
2023/05/24 09:52:53;;;;;;;9.40;4.83;;;;;;;13.23;71.75;98537.22;5070902;28;20271;-78
2023/05/24 09:55:20;;;;;;;8.70;4.90;;;;;;;13.17;72.71;98540.31;5070564;28;20599;-78
2023/05/24 09:57:50;;;;;;;8.10;4.47;;;;;;;13.29;71.16;98527.00;5072963;28;20596;-77
2023/05/24 10:00:23;;;;;;;8.10;4.47;;;;;;;13.23;70.32;98519.50;5072429;28;20704;-77
2023/05/24 10:03:01;;;;;;;12.63;4.90;;;;;;;13.26;69.73;98515.78;5070390;28;20213;-78
2023/05/24 10:05:28;;;;;;;11.00;4.33;;;;;;;13.29;71.00;98534.13;5070143;28;20324;-78
2023/05/24 10:07:58;;;;;;;11.03;5.00;;;;;;;13.21;69.58;98523.22;5070632;28;20205;-78
2023/05/24 10:10:28;;;;;;;9.20;4.17;;;;;;;13.26;70.30;98523.75;5071062;28;20208;-78
2023/05/24 10:12:56;;;;;;;10.10;4.83;;;;;;;13.39;70.63;98527.19;5073668;28;20255;-79
2023/05/24 10:15:24;;;;;;;8.83;4.30;;;;;;;13.44;71.50;98533.00;5073112;28;20231;-77
2023/05/24 10:17:51;;;;;;;10.00;4.47;;;;;;;13.37;72.23;98537.03;5073591;28;20213;-79
2023/05/24 10:20:18;;;;;;;9.70;4.43;;;;;;;13.39;70.29;98527.19;5072891;28;20210;-77
2023/05/24 10:22:46;;;;;;;13.33;5.33;;;;;;;13.41;70.10;98527.91;5073035;28;20341;-79
2023/05/24 10:25:17;;;;;;;9.47;4.70;;;;;;;13.59;71.29;98538.03;5078444;28;20231;-77
2023/05/24 10:27:45;;;;;;;10.77;4.90;;;;;;;13.77;68.99;98519.84;5093055;28;20631;-78
2023/05/24 10:30:16;;;;;;;10.10;5.10;;;;;;;13.81;67.94;98510.69;5092107;28;20580;-77
2023/05/24 10:32:46;;;;;;;8.60;4.67;;;;;;;13.79;67.96;98501.97;5092821;28;20256;-77
2023/05/24 10:35:15;;;;;;;13.60;4.97;;;;;;;13.93;68.63;98515.88;5092138;28;20708;-77
2023/05/24 10:37:42;;;;;;;6.73;4.43;;;;;;;13.97;70.07;98521.81;5092324;28;20310;-77
2023/05/24 10:40:16;;;;;;;10.70;4.47;;;;;;;13.98;66.86;98491.59;5092206;28;20577;-77
2023/05/24 10:42:44;;;;;;;9.27;4.43;;;;;;;14.10;65.31;98480.03;5092669;28;20218;-78
2023/05/24 10:45:31;;;;;;;6.43;4.13;;;;;;;14.17;66.79;98499.88;5092531;28;20236;-77
2023/05/24 10:48:15;;;;;;;11.33;4.97;;;;;;;14.29;67.02;98501.63;5092308;28;20204;-77
2023/05/24 10:50:43;;;;;;;10.33;4.60;;;;;;;14.38;65.84;98495.56;5089206;28;20208;-77
2023/05/24 10:53:13;;;;;;;9.33;4.17;;;;;;;14.44;63.65;98484.44;5092085;28;20203;-77
2023/05/24 10:55:54;;;;;;;11.03;4.57;;;;;;;14.35;61.96;98463.91;5091764;28;20721;-77
2023/05/24 10:58:22;;;;;;;7.50;4.10;;;;;;;14.31;63.04;98483.72;5091877;28;20215;-77
2023/05/24 11:00:52;;;;;;;8.87;4.30;;;;;;;14.30;62.18;98466.91;5090525;28;20301;-77
2023/05/24 11:03:23;;;;;;;9.18;4.60;;;;;;;14.49;62.06;98461.00;5089013;28;20941;-78
2023/05/24 11:05:53;;;;;;;7.50;4.17;;;;;;;14.63;61.98;98464.25;5085973;28;20339;-76
2023/05/24 11:08:30;;;;;;;9.60;4.43;;;;;;;14.65;60.98;98453.44;5087118;28;20639;-78
2023/05/24 11:11:08;;;;;;;12.70;4.33;;;;;;;14.61;59.78;98438.72;5089911;28;20217;-78
2023/05/24 11:13:36;;;;;;;10.80;4.33;;;;;;;14.84;58.97;98440.38;5089858;28;20209;-78
2023/05/24 11:16:03;;;;;;;6.83;4.50;;;;;;;14.91;57.89;98433.59;5090641;28;20234;-78
2023/05/24 11:18:32;;;;;;;9.00;4.23;;;;;;;14.88;58.01;98428.50;5090931;28;20213;-77
2023/05/24 11:21:02;;;;;;;9.57;4.23;;;;;;;14.80;58.52;98430.94;5089054;28;20209;-78
2023/05/24 11:23:29;;;;;;;7.37;4.30;;;;;;;14.89;60.89;98465.63;5090896;28;20215;-80
2023/05/24 11:25:57;;;;;;;12.80;4.50;;;;;;;15.02;62.47;98474.31;5089197;28;20236;-78
2023/05/24 11:28:24;;;;;;;9.70;3.87;;;;;;;15.02;60.01;98449.53;5088792;28;20242;-77
2023/05/24 11:30:50;;;;;;;8.43;4.53;;;;;;;14.92;60.75;98456.56;5089144;28;20707;-78
2023/05/24 11:33:18;;;;;;;9.77;4.23;;;;;;;14.84;60.97;98451.84;5090658;28;20200;-78
2023/05/24 11:35:47;;;;;;;11.47;4.43;;;;;;;14.56;57.40;98414.31;5089281;28;20229;-78